KAXX

Angel Fire Airport

Angel Fire, New Mexico, USA
METAR KAXX 181615Z AUTO 00000KT 10SM CLR M05/M11 A3020 RMK AO2 T10531115
Observed Flight Rules
Dec-18 @ 16:15 UTC (24 minutes ago) Visual Flight Rules
Wind Visibility Clouds
Calm 10 miles
  • Clear skies
Temperatures Readings
Current -5°C / 23°F
Dewpoint -12°C / 10°F
Humidity 58%
Altimeter 30.2" Hg
Pressure 1023 hPa
Elevation 2548
METAR KAXX 181615Z AUTO 00000KT 10SM CLR M05/M11 A3020 RMK AO2 T10531115
Observed Flight Rules
Dec-18 @ 16:15 UTC
(24 minutes ago)
VFR
Wind Visibility
Calm 10 miles
Clouds
  • Clear skies
Temperature Dewpoint
-5°C / 23°F -12°C / 10°F
Humidity Altimeter Pressure
58% 30.2" Hg 1023 hPa